Time;durP1;ratioP1;P1;durP2;ratioP2;P2;SDS_P1;SDS_P2;PMS_P1;PMS_P2;Temp;Humidity;BMP_temperature;BMP_pressure;BME280_temperature;BME280_humidity;BME280_pressure;Samples;Min_cycle;Max_cycle;Signal;HPM_P1;HPM_P2
2022/10/27 00:02:00;;;;;;;2.80;2.30;;;19.40;71.30;20.40;101431.00;;;;5090458;28;20254;-48
2022/10/27 00:04:26;;;;;;;3.67;2.60;;;19.40;71.10;20.40;101430.00;;;;5089686;28;20842;-48
2022/10/27 00:06:51;;;;;;;5.43;2.80;;;19.30;71.10;20.40;101434.00;;;;5091093;28;20175;-50
2022/10/27 00:09:17;;;;;;;3.73;2.43;;;19.30;71.10;20.40;101433.00;;;;5092145;28;20193;-49
2022/10/27 00:11:43;;;;;;;4.20;2.50;;;19.30;71.10;20.40;101439.00;;;;5090812;28;20322;-49
2022/10/27 00:14:08;;;;;;;5.63;2.37;;;19.30;71.30;20.30;101433.00;;;;5089193;28;20595;-49
2022/10/27 00:16:34;;;;;;;3.27;2.57;;;19.20;71.20;20.30;101435.00;;;;5089743;28;20264;-48
2022/10/27 00:19:00;;;;;;;3.57;2.40;;;19.30;71.10;20.30;101419.00;;;;5089641;28;20185;-48
2022/10/27 00:21:26;;;;;;;2.60;2.30;;;19.30;71.10;20.30;101429.00;;;;5089447;28;20181;-50
2022/10/27 00:23:51;;;;;;;8.33;2.60;;;19.30;71.10;20.30;101439.00;;;;5089382;28;20194;-48
2022/10/27 00:26:19;;;;;;;3.77;2.30;;;19.20;71.20;20.30;101440.00;;;;5089313;28;20236;-49
2022/10/27 00:28:45;;;;;;;3.23;2.33;;;19.20;71.20;20.30;101446.00;;;;5089405;28;20165;-49
2022/10/27 00:31:19;;;;;;;4.67;2.60;;;19.20;71.20;20.20;101439.00;;;;5089547;28;20202;-48
2022/10/27 00:33:46;;;;;;;3.43;2.40;;;19.20;71.10;20.20;101436.00;;;;5089202;28;20172;-49
2022/10/27 00:36:17;;;;;;;4.20;2.40;;;19.20;71.10;20.20;101446.00;;;;5089090;28;20172;-48
2022/10/27 00:38:43;;;;;;;4.30;2.50;;;19.20;70.90;20.20;101440.00;;;;5089458;28;20165;-48
2022/10/27 00:41:25;;;;;;;2.90;2.50;;;19.20;70.90;20.20;101447.00;;;;5089051;28;20208;-48
2022/10/27 00:43:51;;;;;;;2.97;2.50;;;19.20;71.10;20.20;101439.00;;;;5088084;28;20239;-49
2022/10/27 00:46:42;;;;;;;3.53;2.60;;;19.10;71.10;20.20;101454.00;;;;5089259;28;20180;-48
2022/10/27 00:49:10;;;;;;;2.40;2.20;;;19.10;71.00;20.20;101445.00;;;;5089737;28;20196;-48
2022/10/27 00:51:46;;;;;;;3.40;2.40;;;19.10;71.00;20.20;101447.00;;;;5055548;28;20638;-49
2022/10/27 00:54:12;;;;;;;2.77;2.50;;;19.10;70.90;20.10;101381.00;;;;5055145;28;20583;-49
2022/10/27 00:56:38;;;;;;;2.50;2.30;;;19.10;71.00;20.10;101450.00;;;;5054639;28;20546;-49
2022/10/27 00:59:04;;;;;;;3.90;2.30;;;19.10;70.80;20.10;101450.00;;;;5087667;28;20180;-49
2022/10/27 01:01:29;;;;;;;3.43;2.43;;;19.00;70.80;20.10;101435.00;;;;5087844;28;20177;-48
2022/10/27 01:03:55;;;;;;;3.63;2.50;;;19.00;70.90;20.10;101441.00;;;;5054279;28;20206;-49
2022/10/27 01:06:21;;;;;;;3.20;2.47;;;19.00;71.00;20.10;101436.00;;;;5089368;28;20230;-48
2022/10/27 01:08:46;;;;;;;3.10;2.33;;;19.00;71.00;20.10;101437.00;;;;5070991;28;20587;-49
2022/10/27 01:11:12;;;;;;;4.10;2.43;;;18.90;70.90;20.10;101432.00;;;;5087467;28;20169;-48
2022/10/27 01:13:38;;;;;;;3.43;2.50;;;18.90;70.90;20.00;101434.00;;;;5088770;28;20218;-48
2022/10/27 01:16:34;;;;;;;3.13;2.47;;;18.90;70.90;20.00;101434.00;;;;5087426;28;20191;-48
2022/10/27 01:19:40;;;;;;;4.50;2.60;;;18.90;70.90;20.00;101437.00;;;;5087629;28;20171;-48
2022/10/27 01:22:17;;;;;;;2.73;2.30;;;18.90;70.90;20.00;101430.00;;;;5087438;28;20256;-48
2022/10/27 01:25:36;;;;;;;3.03;2.37;;;18.80;70.80;20.00;101430.00;;;;5088554;28;20562;-48
2022/10/27 01:28:24;;;;;;;4.73;2.37;;;18.80;70.80;19.90;101436.00;;;;5089217;28;20723;-49
2022/10/27 01:31:07;;;;;;;5.03;2.30;;;18.80;70.70;19.90;101445.00;;;;5072804;28;20201;-49
2022/10/27 01:33:49;;;;;;;2.87;2.23;;;18.80;70.70;19.90;101440.00;;;;5088521;28;20157;-48
2022/10/27 01:36:30;;;;;;;3.67;2.47;;;18.80;70.80;19.90;101441.00;;;;5055269;28;20613;-48
2022/10/27 01:39:18;;;;;;;3.50;2.30;;;18.80;71.10;19.80;101438.00;;;;5071098;28;20212;-49
2022/10/27 01:41:48;;;;;;;3.33;2.20;;;18.80;71.10;19.80;101433.00;;;;5056335;28;20595;-49
2022/10/27 01:44:49;;;;;;;3.00;2.20;;;18.70;71.20;19.80;101436.00;;;;5070189;28;20197;-49
2022/10/27 01:47:14;;;;;;;4.43;2.40;;;18.70;71.40;19.80;101430.00;;;;5083070;28;20716;-49
2022/10/27 01:49:41;;;;;;;4.10;2.30;;;18.80;71.40;19.80;101436.00;;;;5070023;28;20200;-49
2022/10/27 01:52:40;;;;;;;3.03;2.30;;;18.80;71.50;19.80;101445.00;;;;5088090;28;20173;-49
2022/10/27 01:55:29;;;;;;;4.17;2.33;;;18.70;71.40;19.80;101451.00;;;;5087877;28;20239;-49
2022/10/27 01:58:07;;;;;;;2.33;2.10;;;18.70;71.30;19.80;101449.00;;;;5072979;28;20181;-49
2022/10/27 02:00:58;;;;;;;4.17;2.30;;;18.70;71.30;19.80;101442.00;;;;5087074;28;20184;-49
2022/10/27 02:03:57;;;;;;;5.07;2.40;;;18.70;71.30;19.80;101446.00;;;;5031987;28;20220;-48
2022/10/27 02:06:41;;;;;;;5.40;2.20;;;18.80;71.40;19.80;101437.00;;;;5087297;28;20168;-49
2022/10/27 02:09:29;;;;;;;5.87;2.30;;;18.70;71.20;19.80;101441.00;;;;5070409;28;20682;-48
2022/10/27 02:11:55;;;;;;;4.37;2.47;;;18.70;71.30;19.70;101447.00;;;;5087192;28;20166;-48
2022/10/27 02:14:21;;;;;;;4.03;2.20;;;18.60;71.20;19.70;101458.00;;;;5072547;28;20192;-49
2022/10/27 02:16:51;;;;;;;3.43;2.40;;;18.60;71.30;19.70;101452.00;;;;5092056;28;20177;-48
2022/10/27 02:19:30;;;;;;;3.47;2.03;;;18.70;71.40;19.70;101457.00;;;;5058030;28;20197;-50
2022/10/27 02:21:57;;;;;;;4.23;2.40;;;18.70;71.20;19.70;101456.00;;;;5090515;28;20158;-49
2022/10/27 02:24:23;;;;;;;2.30;2.10;;;18.70;71.10;19.70;101455.00;;;;5073502;28;20743;-50
2022/10/27 02:27:16;;;;;;;2.87;2.10;;;18.70;71.00;19.70;101451.00;;;;5074004;28;20252;-49
2022/10/27 02:29:45;;;;;;;3.13;2.57;;;18.70;71.10;19.70;101448.00;;;;5077634;28;20196;-48
2022/10/27 02:32:14;;;;;;;3.03;2.30;;;18.70;71.00;19.70;101445.00;;;;5090468;28;20227;-48
2022/10/27 02:34:40;;;;;;;2.73;2.20;;;18.70;70.80;19.70;101443.00;;;;5090176;28;20184;-48
2022/10/27 02:37:07;;;;;;;2.60;2.07;;;18.70;71.00;19.70;101451.00;;;;5090726;28;20507;-49
2022/10/27 02:39:33;;;;;;;3.77;2.30;;;18.70;70.90;19.70;101450.00;;;;5090665;28;20593;-49
2022/10/27 02:41:59;;;;;;;3.87;2.40;;;18.70;70.80;19.70;101452.00;;;;5091928;28;20253;-49
2022/10/27 02:44:24;;;;;;;2.40;2.10;;;18.60;70.80;19.70;101453.00;;;;5056728;28;20224;-49
2022/10/27 02:46:50;;;;;;;4.50;2.20;;;18.60;70.80;19.70;101450.00;;;;5091734;28;20173;-49
2022/10/27 02:49:16;;;;;;;5.93;2.60;;;18.70;70.90;19.70;101454.00;;;;5091632;28;20243;-49
2022/10/27 02:51:42;;;;;;;2.70;2.10;;;18.60;70.80;19.70;101458.00;;;;5091536;28;20594;-49
2022/10/27 02:54:07;;;;;;;4.03;2.30;;;18.60;70.60;19.70;101464.00;;;;5091326;28;20180;-49
2022/10/27 02:56:33;;;;;;;3.67;2.40;;;18.70;70.70;19.70;101456.00;;;;5091460;28;20180;-48
2022/10/27 02:58:59;;;;;;;3.67;2.10;;;18.70;70.70;19.60;101456.00;;;;5091398;28;20188;-48
2022/10/27 03:01:24;;;;;;;3.30;2.30;;;18.60;70.70;19.70;101456.00;;;;5091114;28;20173;-49
2022/10/27 03:03:50;;;;;;;2.37;1.83;;;18.60;70.60;19.60;101449.00;;;;5092729;28;20216;-49
2022/10/27 03:06:16;;;;;;;3.77;2.30;;;18.60;70.50;19.70;101472.00;;;;5092823;28;20165;-49
2022/10/27 03:08:41;;;;;;;3.80;2.30;;;18.60;70.50;19.60;101459.00;;;;5091419;28;20177;-48
2022/10/27 03:11:07;;;;;;;3.67;2.03;;;18.60;70.50;19.60;101463.00;;;;5093984;28;20859;-48
2022/10/27 03:13:33;;;;;;;4.57;2.10;;;18.60;70.60;19.60;101454.00;;;;5091139;28;20169;-49
2022/10/27 03:15:59;;;;;;;5.10;2.30;;;18.60;70.50;19.60;101447.00;;;;5091310;28;20211;-48
2022/10/27 03:18:24;;;;;;;4.23;2.30;;;18.50;70.40;19.60;101450.00;;;;5091446;28;20177;-49
2022/10/27 03:20:50;;;;;;;3.90;2.30;;;18.50;70.50;19.60;101437.00;;;;5091237;28;20200;-48
2022/10/27 03:23:16;;;;;;;3.47;2.30;;;18.50;70.60;19.60;101435.00;;;;5090430;28;20192;-49
2022/10/27 03:25:43;;;;;;;2.83;2.10;;;18.50;70.60;19.50;101424.00;;;;5089685;28;20184;-48
2022/10/27 03:28:12;;;;;;;2.93;2.20;;;18.40;70.60;19.50;101425.00;;;;5091213;28;20548;-49
2022/10/27 03:30:38;;;;;;;2.20;2.00;;;18.50;71.00;19.50;101425.00;;;;5090956;28;20523;-48
2022/10/27 03:33:03;;;;;;;4.07;2.33;;;18.50;70.80;19.50;101418.00;;;;5090402;28;20192;-48
2022/10/27 03:35:29;;;;;;;3.60;2.00;;;18.40;70.60;19.50;101418.00;;;;5090368;28;20208;-49
2022/10/27 03:37:59;;;;;;;3.83;2.23;;;18.30;70.70;19.50;101413.00;;;;5090667;28;20172;-48
2022/10/27 03:40:25;;;;;;;3.47;2.00;;;18.30;70.90;19.40;101404.00;;;;5089260;28;20205;-49
2022/10/27 03:42:56;;;;;;;3.73;2.33;;;18.30;71.00;19.40;101418.00;;;;5090473;28;20544;-50
2022/10/27 03:45:22;;;;;;;3.57;2.57;;;18.30;71.10;19.40;101419.00;;;;5090882;28;20173;-50
2022/10/27 03:47:47;;;;;;;5.87;3.03;;;18.30;71.10;19.40;101425.00;;;;5091190;28;20180;-50
2022/10/27 03:50:13;;;;;;;4.93;3.23;;;18.20;71.10;19.40;101418.00;;;;5091008;28;20219;-49
2022/10/27 03:52:40;;;;;;;4.00;2.70;;;18.30;71.10;19.30;101425.00;;;;5090744;28;20176;-49
2022/10/27 03:55:06;;;;;;;4.53;2.87;;;18.20;71.00;19.30;101420.00;;;;5086613;28;20223;-48
2022/10/27 03:57:32;;;;;;;2.90;2.43;;;18.20;71.00;19.30;101420.00;;;;5080441;28;20216;-48
2022/10/27 03:59:58;;;;;;;4.50;2.60;;;18.20;70.90;19.30;101413.00;;;;5069689;28;20327;-49
2022/10/27 04:02:24;;;;;;;4.03;2.50;;;18.20;71.10;19.30;101418.00;;;;5070033;28;20661;-49
2022/10/27 04:04:49;;;;;;;3.10;2.40;;;18.20;71.10;19.30;101420.00;;;;5070151;28;20193;-49
2022/10/27 04:07:15;;;;;;;7.87;2.80;;;18.10;71.10;19.30;101419.00;;;;5070017;28;20189;-48
2022/10/27 04:09:41;;;;;;;5.17;2.70;;;18.20;71.10;19.30;101423.00;;;;5069668;28;20247;-50
2022/10/27 04:12:06;;;;;;;4.43;2.63;;;18.10;71.10;19.30;101415.00;;;;5070481;28;20154;-48
2022/10/27 04:14:32;;;;;;;3.13;2.30;;;18.10;71.00;19.20;101414.00;;;;5069929;28;20733;-48
2022/10/27 04:16:58;;;;;;;4.33;2.40;;;18.10;71.10;19.20;101410.00;;;;5069017;28;20235;-50
2022/10/27 04:19:24;;;;;;;4.37;2.40;;;18.10;71.10;19.20;101412.00;;;;5069664;28;20198;-48
2022/10/27 04:21:49;;;;;;;5.33;2.20;;;18.10;71.10;19.20;101414.00;;;;5069421;28;20657;-49
2022/10/27 04:24:15;;;;;;;4.70;2.40;;;18.10;71.00;19.20;101420.00;;;;5069941;28;20263;-49
2022/10/27 04:26:41;;;;;;;2.70;2.27;;;18.10;71.00;19.20;101415.00;;;;5070086;28;20189;-48
2022/10/27 04:29:06;;;;;;;6.33;2.30;;;18.10;71.20;19.20;101426.00;;;;5069499;28;20531;-49
2022/10/27 04:31:32;;;;;;;4.67;2.30;;;18.10;71.20;19.20;101420.00;;;;5069999;28;20184;-49
2022/10/27 04:33:58;;;;;;;3.63;2.10;;;18.10;71.30;19.20;101421.00;;;;5069628;28;20669;-49
2022/10/27 04:36:24;;;;;;;3.10;2.33;;;18.00;71.20;19.20;101409.00;;;;5069772;28;20534;-49
2022/10/27 04:38:50;;;;;;;4.23;2.23;;;18.10;71.20;19.20;101419.00;;;;5069103;28;20223;-49
2022/10/27 04:41:16;;;;;;;2.93;2.30;;;18.20;71.30;19.20;101410.00;;;;5069564;28;20199;-50
2022/10/27 04:43:42;;;;;;;4.53;2.50;;;18.10;71.10;19.10;101404.00;;;;5069129;28;20201;-50
2022/10/27 04:46:07;;;;;;;3.43;2.20;;;18.00;71.20;19.10;101397.00;;;;5069602;28;20247;-49
2022/10/27 04:48:33;;;;;;;3.27;2.20;;;18.00;71.30;19.10;101400.00;;;;5068738;28;20694;-49
2022/10/27 04:50:59;;;;;;;2.80;2.10;;;18.00;71.40;19.10;101404.00;;;;5069072;28;20289;-49
2022/10/27 04:53:25;;;;;;;3.97;2.40;;;18.00;71.50;19.10;101403.00;;;;5069215;28;20170;-50
2022/10/27 04:55:51;;;;;;;4.53;2.40;;;18.00;71.60;19.10;101387.00;;;;5073001;28;20177;-48
2022/10/27 04:58:17;;;;;;;3.93;2.37;;;18.00;71.70;19.10;101400.00;;;;5068548;28;20649;-49
2022/10/27 05:00:43;;;;;;;2.70;2.20;;;18.00;71.70;19.10;101398.00;;;;5066938;28;20204;-50
2022/10/27 05:03:08;;;;;;;4.00;2.20;;;17.90;71.60;19.00;101392.00;;;;5065595;28;20209;-49
2022/10/27 05:05:34;;;;;;;3.13;2.10;;;17.90;71.70;19.00;101406.00;;;;5067200;28;20201;-50
2022/10/27 05:08:01;;;;;;;4.67;2.20;;;18.00;71.90;19.00;101397.00;;;;5068844;28;20197;-49
2022/10/27 05:10:30;;;;;;;2.77;2.10;;;17.90;71.80;19.00;101399.00;;;;5068349;28;20243;-48
2022/10/27 05:12:56;;;;;;;5.47;2.30;;;17.90;71.90;19.00;101409.00;;;;5068846;28;20239;-48
2022/10/27 05:15:22;;;;;;;3.80;2.30;;;17.90;71.90;19.00;101408.00;;;;5068358;28;20624;-49
2022/10/27 05:17:48;;;;;;;2.97;2.03;;;17.90;71.90;18.90;101412.00;;;;5069095;28;20570;-49
2022/10/27 05:20:14;;;;;;;2.87;2.30;;;17.80;71.90;19.00;101417.00;;;;5068454;28;20203;-50
2022/10/27 05:22:39;;;;;;;3.30;2.50;;;17.90;71.80;19.00;101406.00;;;;5068956;28;20200;-50
2022/10/27 05:25:06;;;;;;;4.13;2.63;;;17.90;71.70;19.00;101418.00;;;;5067854;28;20258;-49
2022/10/27 05:27:32;;;;;;;2.90;2.50;;;17.90;71.60;19.00;101407.00;;;;5070033;28;20254;-48
2022/10/27 05:29:58;;;;;;;3.33;2.70;;;17.90;71.70;19.00;101418.00;;;;5068459;28;20650;-48
2022/10/27 05:32:23;;;;;;;3.40;2.40;;;17.90;71.70;18.90;101411.00;;;;5068546;28;20651;-49
2022/10/27 05:34:49;;;;;;;2.83;2.40;;;17.80;71.70;18.90;101423.00;;;;5068595;28;20665;-49
2022/10/27 05:37:15;;;;;;;3.60;2.73;;;17.80;71.60;18.90;101423.00;;;;5068585;28;20227;-49
2022/10/27 05:39:41;;;;;;;3.43;2.60;;;17.90;71.60;18.90;101422.00;;;;5068160;28;20605;-49
2022/10/27 05:42:06;;;;;;;8.20;2.60;;;17.90;71.40;18.90;101422.00;;;;5068267;28;20180;-49
2022/10/27 05:44:32;;;;;;;3.07;2.60;;;18.00;71.30;18.90;101426.00;;;;5068605;28;20193;-49
2022/10/27 05:46:58;;;;;;;4.47;2.60;;;18.00;71.30;19.00;101427.00;;;;5069163;28;20170;-50
2022/10/27 05:49:23;;;;;;;2.50;2.30;;;18.00;71.20;19.00;101429.00;;;;5067497;28;20625;-49
2022/10/27 05:51:50;;;;;;;2.67;2.30;;;18.00;71.10;19.00;101439.00;;;;5068663;28;20239;-48
2022/10/27 05:54:16;;;;;;;2.50;2.30;;;18.00;71.00;19.00;101435.00;;;;5068383;28;20170;-49
2022/10/27 05:56:41;;;;;;;5.50;2.30;;;18.10;71.10;19.00;101432.00;;;;5068351;28;20169;-49
2022/10/27 05:59:09;;;;;;;2.60;2.40;;;18.00;70.90;18.90;101429.00;;;;5074702;28;20217;-49
2022/10/27 06:01:35;;;;;;;2.40;2.20;;;18.10;71.00;18.90;101429.00;;;;5083820;28;20633;-49
2022/10/27 06:04:01;;;;;;;2.57;2.20;;;18.10;70.90;18.90;101428.00;;;;5072770;28;20232;-49
2022/10/27 06:06:26;;;;;;;3.13;2.20;;;18.00;70.90;18.90;101432.00;;;;5068579;28;20180;-49
2022/10/27 06:08:52;;;;;;;2.47;2.20;;;18.00;70.90;18.90;101435.00;;;;5068295;28;20191;-49
2022/10/27 06:11:18;;;;;;;2.43;2.10;;;18.10;71.00;18.90;101433.00;;;;5068330;28;20169;-49
2022/10/27 06:13:43;;;;;;;3.87;2.40;;;18.00;71.10;18.70;101430.00;;;;5068292;28;20262;-48
2022/10/27 06:16:09;;;;;;;2.97;2.10;;;18.00;71.30;18.90;101437.00;;;;5068129;28;20178;-50
2022/10/27 06:18:35;;;;;;;5.43;2.27;;;17.90;71.20;18.90;101437.00;;;;5068008;28;20583;-49
2022/10/27 06:21:01;;;;;;;3.80;2.40;;;18.00;71.30;18.90;101441.00;;;;5068064;28;20250;-50
2022/10/27 06:23:26;;;;;;;3.77;2.30;;;18.00;71.20;18.90;101445.00;;;;5067835;28;20230;-49
2022/10/27 06:25:55;;;;;;;3.60;2.30;;;18.00;71.20;18.90;101444.00;;;;5068564;28;20174;-49
2022/10/27 06:28:21;;;;;;;2.40;2.20;;;18.00;71.20;18.90;101442.00;;;;5068175;28;20177;-49
2022/10/27 06:30:47;;;;;;;3.87;2.33;;;17.90;71.30;18.90;101439.00;;;;5067056;28;20193;-50
2022/10/27 06:33:12;;;;;;;4.63;2.33;;;18.00;71.30;18.90;101460.00;;;;5066503;28;20181;-50
2022/10/27 06:35:38;;;;;;;8.27;2.40;;;18.00;71.60;18.90;101460.00;;;;5068138;28;20212;-49
2022/10/27 06:38:04;;;;;;;4.80;2.30;;;18.00;71.50;18.90;101456.00;;;;5067331;28;20200;-49
2022/10/27 06:40:30;;;;;;;2.73;2.33;;;18.00;71.50;18.90;101447.00;;;;5069746;28;20204;-49
2022/10/27 06:42:55;;;;;;;2.30;2.10;;;18.00;71.40;18.90;101451.00;;;;5069453;28;20173;-49
2022/10/27 06:45:21;;;;;;;2.87;2.30;;;18.00;71.30;18.90;101459.00;;;;5080599;28;20185;-49
2022/10/27 06:47:57;;;;;;;3.90;2.30;;;18.00;71.30;18.90;101460.00;;;;5072682;28;20238;-49
2022/10/27 06:50:22;;;;;;;3.07;2.30;;;18.00;71.50;18.90;101465.00;;;;5068042;28;20290;-49
2022/10/27 06:52:50;;;;;;;3.20;2.27;;;17.90;71.40;18.90;101467.00;;;;5067541;28;20174;-50
2022/10/27 06:55:15;;;;;;;2.30;2.10;;;18.00;71.50;18.80;101452.00;;;;5021540;28;20213;-49
2022/10/27 06:57:41;;;;;;;2.43;2.23;;;17.90;71.40;18.80;101470.00;;;;5082250;28;20197;-49
2022/10/27 07:00:08;;;;;;;4.67;2.33;;;18.00;71.70;18.80;101466.00;;;;5088885;28;20197;-49
2022/10/27 07:02:34;;;;;;;3.50;2.17;;;18.00;71.60;18.80;101459.00;;;;5087484;28;20177;-49
2022/10/27 07:05:00;;;;;;;3.63;2.20;;;18.00;71.60;18.80;101468.00;;;;5100705;28;20208;-49
2022/10/27 07:07:26;;;;;;;3.03;2.27;;;18.00;71.60;18.80;101459.00;;;;5110607;28;20176;-48
2022/10/27 07:09:52;;;;;;;4.30;2.33;;;18.00;71.60;18.90;101450.00;;;;5111566;27;20239;-49
2022/10/27 07:12:17;;;;;;;3.77;2.20;;;18.00;71.60;18.80;101451.00;;;;5094227;28;20272;-49
2022/10/27 07:14:43;;;;;;;3.47;2.00;;;18.00;71.60;18.80;101451.00;;;;5091002;28;20543;-49
2022/10/27 07:17:09;;;;;;;3.40;2.20;;;17.90;71.60;18.80;101444.00;;;;5092080;28;20561;-47
2022/10/27 07:19:34;;;;;;;4.97;1.93;;;17.90;71.70;18.80;101456.00;;;;5099192;28;20249;-48
2022/10/27 07:22:00;;;;;;;3.70;2.10;;;17.90;71.70;18.80;101457.00;;;;5109383;28;20184;-49
2022/10/27 07:24:26;;;;;;;3.00;2.13;;;17.90;71.70;18.90;101451.00;;;;5111676;28;20676;-48
2022/10/27 07:26:52;;;;;;;3.57;2.03;;;18.00;71.80;18.90;101452.00;;;;5111430;28;20640;-49
2022/10/27 07:29:17;;;;;;;2.30;2.10;;;18.00;71.90;18.90;101446.00;;;;5112964;28;20299;-50
2022/10/27 07:31:44;;;;;;;2.67;1.90;;;18.00;72.10;18.90;101442.00;;;;5112728;28;20200;-48
2022/10/27 07:34:11;;;;;;;4.17;2.10;;;18.00;72.20;18.90;101431.00;;;;5111326;28;20768;-48
2022/10/27 07:36:36;;;;;;;3.00;2.13;;;18.00;72.20;18.90;101434.00;;;;5110622;28;20800;-49
2022/10/27 07:39:02;;;;;;;2.47;2.10;;;18.00;72.10;18.90;101431.00;;;;5111540;27;20165;-48
2022/10/27 07:41:28;;;;;;;3.20;2.13;;;18.00;72.10;18.90;101428.00;;;;5110816;28;20186;-49
2022/10/27 07:43:54;;;;;;;2.30;1.70;;;18.00;72.10;18.90;101425.00;;;;5099125;27;20551;-48
2022/10/27 07:46:19;;;;;;;2.43;1.90;;;18.10;72.20;18.90;101428.00;;;;5090512;28;20198;-48
2022/10/27 07:48:45;;;;;;;2.63;2.13;;;18.00;72.20;18.90;101425.00;;;;5089216;28;20251;-49
2022/10/27 07:51:11;;;;;;;2.67;2.10;;;18.00;72.10;18.90;101418.00;;;;5091967;28;20203;-49
2022/10/27 07:53:36;;;;;;;3.10;2.00;;;18.00;72.20;18.90;101421.00;;;;5090103;28;20207;-49
2022/10/27 07:56:02;;;;;;;3.13;2.20;;;18.00;72.20;18.90;101419.00;;;;5053911;28;20664;-48
2022/10/27 07:58:28;;;;;;;4.33;2.10;;;18.00;72.30;18.90;101422.00;;;;5095697;28;20173;-49
2022/10/27 08:00:54;;;;;;;3.00;2.10;;;18.00;72.20;18.90;101428.00;;;;5090464;28;20242;-49
2022/10/27 08:03:21;;;;;;;2.10;1.93;;;17.90;72.30;18.90;101418.00;;;;5089714;28;20200;-53
2022/10/27 08:05:47;;;;;;;2.43;2.03;;;17.90;72.30;18.90;101414.00;;;;5090161;28;20204;-48
2022/10/27 08:08:14;;;;;;;2.70;2.07;;;17.90;72.40;18.90;101435.00;;;;5089979;28;20802;-48
2022/10/27 08:10:40;;;;;;;4.47;2.17;;;17.90;72.50;18.90;101415.00;;;;5088635;28;20220;-49
2022/10/27 08:13:06;;;;;;;2.50;2.10;;;17.90;72.50;18.90;101413.00;;;;5090687;28;20208;-48
2022/10/27 08:15:32;;;;;;;2.37;2.10;;;17.90;72.50;18.90;101422.00;;;;5090144;28;20213;-48
2022/10/27 08:18:00;;;;;;;2.67;2.30;;;17.90;72.40;18.90;101419.00;;;;5088636;28;20570;-48
2022/10/27 08:20:30;;;;;;;8.13;2.27;;;17.90;72.70;18.90;101424.00;;;;5090330;28;20575;-49
2022/10/27 08:23:00;;;;;;;5.80;2.20;;;17.90;72.80;18.90;101413.00;;;;5080503;28;20173;-49
2022/10/27 08:25:26;;;;;;;6.80;2.20;;;18.00;73.30;19.00;101344.00;;;;5088316;28;20181;-49
2022/10/27 08:27:52;;;;;;;4.73;1.97;;;18.00;73.00;19.00;101416.00;;;;5090100;28;20207;-49
2022/10/27 08:30:20;;;;;;;7.87;2.60;;;18.00;73.20;19.00;101425.00;;;;5088530;28;20312;-49
2022/10/27 08:32:48;;;;;;;6.37;2.40;;;18.10;73.30;19.00;101432.00;;;;5089964;28;20173;-50
2022/10/27 08:35:15;;;;;;;10.03;2.60;;;18.10;73.50;19.00;101424.00;;;;5089643;28;20161;-48
2022/10/27 08:37:41;;;;;;;9.03;2.53;;;18.10;73.80;19.10;101427.00;;;;5089645;28;20187;-49
2022/10/27 08:40:07;;;;;;;8.53;2.50;;;18.10;73.80;19.10;101425.00;;;;5089165;28;20197;-48
2022/10/27 08:42:59;;;;;;;9.57;2.37;;;18.10;73.80;19.10;101423.00;;;;5094087;28;20625;-49
2022/10/27 08:45:29;;;;;;;9.83;2.37;;;18.10;73.80;19.10;101419.00;;;;5086693;28;20653;-48
2022/10/27 08:47:56;;;;;;;10.43;2.50;;;18.10;73.90;19.10;101420.00;;;;5087537;28;20630;-49
2022/10/27 08:50:24;;;;;;;9.23;2.50;;;18.10;73.90;19.10;101421.00;;;;5087520;28;20238;-50
2022/10/27 08:53:06;;;;;;;6.17;2.10;;;18.10;74.00;19.10;101420.00;;;;5087545;28;20177;-50
2022/10/27 08:55:40;;;;;;;5.97;2.20;;;18.10;74.00;19.10;101422.00;;;;5035238;28;20180;-49
2022/10/27 08:58:14;;;;;;;5.60;2.23;;;18.10;74.00;19.10;101425.00;;;;5084715;28;20184;-48
2022/10/27 09:00:56;;;;;;;8.47;2.53;;;18.10;74.10;19.10;101417.00;;;;5052299;28;20204;-49
2022/10/27 09:03:46;;;;;;;4.27;2.10;;;18.10;74.90;19.10;101422.00;;;;5079744;28;20188;-48
2022/10/27 09:06:22;;;;;;;4.27;2.37;;;18.10;74.10;19.10;101416.00;;;;5091845;28;20229;-48
2022/10/27 09:08:57;;;;;;;5.97;2.20;;;18.10;74.20;19.10;101428.00;;;;5094342;28;20173;-48
2022/10/27 09:11:50;;;;;;;3.20;2.17;;;18.20;74.20;19.10;101425.00;;;;5088300;28;20161;-48
2022/10/27 09:14:46;;;;;;;5.77;2.00;;;18.10;74.20;19.10;101412.00;;;;5089088;28;20180;-49
2022/10/27 09:17:33;;;;;;;6.40;2.07;;;18.10;74.30;19.10;101422.00;;;;5088311;28;20169;-49
2022/10/27 09:20:05;;;;;;;5.13;2.03;;;18.20;74.50;19.10;101409.00;;;;5072095;28;20619;-48
2022/10/27 09:22:32;;;;;;;3.40;1.90;;;18.20;74.50;19.10;101400.00;;;;5087144;28;20184;-49
2022/10/27 09:25:04;;;;;;;4.03;2.17;;;18.20;74.50;19.20;101419.00;;;;5070840;28;20200;-49
2022/10/27 09:27:29;;;;;;;3.73;2.30;;;18.10;74.50;19.20;101411.00;;;;5054609;28;20192;-49
2022/10/27 09:29:57;;;;;;;3.03;2.03;;;18.20;74.70;19.20;101381.00;;;;5087538;28;20231;-49
2022/10/27 09:32:25;;;;;;;4.53;2.00;;;18.20;75.00;19.20;101396.00;;;;5054638;28;20716;-49
2022/10/27 09:35:14;;;;;;;4.53;1.90;;;18.20;75.10;19.20;101379.00;;;;5087579;28;20199;-48
2022/10/27 09:37:41;;;;;;;3.93;1.90;;;18.20;75.10;19.20;101387.00;;;;5090327;28;20169;-48
2022/10/27 09:40:18;;;;;;;3.70;1.90;;;18.20;75.20;19.20;101373.00;;;;5089421;28;20188;-49
2022/10/27 09:42:45;;;;;;;4.07;1.80;;;18.20;75.60;19.20;101376.00;;;;5072286;28;20247;-49
2022/10/27 09:45:25;;;;;;;3.87;2.20;;;18.20;75.50;19.20;101378.00;;;;5087342;28;20193;-49
2022/10/27 09:47:56;;;;;;;2.27;1.70;;;18.20;75.80;19.20;101366.00;;;;5089220;28;20149;-50
2022/10/27 09:50:39;;;;;;;2.63;2.00;;;18.20;76.00;19.20;101377.00;;;;5071842;28;20523;-49
2022/10/27 09:53:05;;;;;;;3.07;2.00;;;18.20;76.10;19.10;101381.00;;;;5088852;28;20149;-48
2022/10/27 09:55:51;;;;;;;2.10;1.90;;;18.20;76.20;19.20;101373.00;;;;5070676;28;20188;-49
2022/10/27 09:58:17;;;;;;;3.30;2.00;;;18.30;76.40;19.20;101384.00;;;;5053006;28;20149;-50
2022/10/27 10:00:43;;;;;;;2.00;1.70;;;18.30;76.40;19.20;101372.00;;;;5087587;28;20189;-48
2022/10/27 10:03:27;;;;;;;3.90;1.90;;;18.20;76.50;19.20;101357.00;;;;5088551;28;20176;-49
2022/10/27 10:06:03;;;;;;;3.47;1.70;;;18.30;76.70;19.20;101358.00;;;;5090399;28;20149;-49
2022/10/27 10:08:35;;;;;;;4.13;1.90;;;18.30;77.00;19.20;101358.00;;;;5061915;28;20157;-49
2022/10/27 10:11:08;;;;;;;2.63;1.83;;;18.30;77.10;19.30;101350.00;;;;5089060;28;20631;-48
2022/10/27 10:13:37;;;;;;;2.37;1.70;;;18.30;77.60;19.30;101336.00;;;;5087796;28;20662;-50
2022/10/27 10:16:14;;;;;;;3.37;1.80;;;18.30;77.20;19.30;101352.00;;;;5089342;28;20211;-49
2022/10/27 10:18:40;;;;;;;1.97;1.70;;;18.40;77.60;19.30;101350.00;;;;5071694;28;20195;-50
2022/10/27 10:21:12;;;;;;;2.00;1.80;;;18.40;77.80;19.30;101355.00;;;;5071017;28;20197;-48
2022/10/27 10:23:50;;;;;;;2.10;1.80;;;18.40;77.80;19.30;101338.00;;;;5070376;28;20245;-50
2022/10/27 10:26:27;;;;;;;2.40;1.80;;;18.40;78.30;19.30;101341.00;;;;5087023;28;20168;-49
2022/10/27 10:29:43;;;;;;;2.87;1.90;;;18.40;78.20;19.40;101332.00;;;;5087053;28;20180;-49
2022/10/27 10:32:30;;;;;;;2.13;1.70;;;18.40;78.00;19.30;101321.00;;;;5077406;28;20181;-52
2022/10/27 10:34:56;;;;;;;1.90;1.70;;;18.50;78.30;19.40;101333.00;;;;5072470;28;20422;-49
2022/10/27 10:37:38;;;;;;;3.00;2.00;;;18.50;78.40;19.40;101340.00;;;;5075020;28;20171;-49
2022/10/27 10:40:27;;;;;;;1.90;1.70;;;18.50;78.40;19.40;101330.00;;;;5098790;28;20189;-49
2022/10/27 10:43:18;;;;;;;2.67;1.80;;;18.50;78.30;19.40;101330.00;;;;5092173;28;20459;-49
2022/10/27 10:45:43;;;;;;;3.07;1.80;;;18.50;78.00;19.40;101339.00;;;;5092488;28;20212;-49
2022/10/27 10:48:38;;;;;;;2.43;1.80;;;18.60;77.90;19.40;101324.00;;;;5057162;28;20196;-49
2022/10/27 10:51:06;;;;;;;1.97;1.77;;;18.60;77.90;19.50;101314.00;;;;5090821;28;20201;-49
2022/10/27 10:53:50;;;;;;;2.67;1.83;;;18.60;78.00;19.50;101316.00;;;;5057740;28;20232;-49
2022/10/27 10:56:23;;;;;;;2.13;1.93;;;18.60;77.90;19.50;101320.00;;;;5091155;28;20163;-48
2022/10/27 10:59:08;;;;;;;2.53;2.10;;;18.60;78.00;19.60;101319.00;;;;5078198;28;20626;-49
2022/10/27 11:02:01;;;;;;;1.80;1.67;;;18.60;77.80;19.60;101309.00;;;;5088183;28;20653;-48